createdAt,value
2019-01-03T00:00:25.427Z,6.00
2019-01-03T00:02:56.321Z,3.37
2019-01-03T00:05:35.989Z,6.40
2019-01-03T00:08:24.755Z,4.30
2019-01-03T00:10:58.342Z,6.33
2019-01-03T00:13:44.114Z,5.63
2019-01-03T00:16:33.027Z,6.67
2019-01-03T00:19:04.246Z,8.07
2019-01-03T00:21:35.273Z,4.13
2019-01-03T00:24:22.389Z,4.13
2019-01-03T00:27:09.359Z,8.97
2019-01-03T00:29:42.718Z,10.90
2019-01-03T00:32:13.698Z,5.67
2019-01-03T00:35:01.011Z,4.33
2019-01-03T00:37:40.079Z,5.20
2019-01-03T00:40:16.538Z,4.63
2019-01-03T00:42:59.589Z,6.57
2019-01-03T00:45:36.505Z,3.53
2019-01-03T00:48:10.061Z,3.20
2019-01-03T00:50:40.951Z,4.90
2019-01-03T00:53:17.410Z,6.47
2019-01-03T00:56:06.178Z,2.50
2019-01-03T00:58:46.035Z,6.43
2019-01-03T01:01:33.219Z,6.50
2019-01-03T01:04:04.192Z,5.93
2019-01-03T01:06:51.173Z,5.37
2019-01-03T01:09:40.006Z,3.40
2019-01-03T01:12:10.655Z,4.53
2019-01-03T01:14:59.310Z,3.97
2019-01-03T01:17:45.974Z,7.13
2019-01-03T01:20:25.763Z,4.30
2019-01-03T01:23:08.334Z,5.23
2019-01-03T01:25:42.007Z,4.13
2019-01-03T01:28:12.646Z,4.17
2019-01-03T01:30:59.627Z,6.03
2019-01-03T01:33:46.306Z,4.50
2019-01-03T01:36:23.250Z,5.57
2019-01-03T01:38:59.843Z,4.20
2019-01-03T01:41:33.438Z,5.30
2019-01-03T01:44:13.514Z,5.27
2019-01-03T01:47:00.615Z,4.13
2019-01-03T01:49:47.685Z,4.40
2019-01-03T01:52:23.998Z,4.47
2019-01-03T01:54:57.005Z,3.00
2019-01-03T01:57:42.701Z,4.60
2019-01-03T02:00:25.066Z,4.77
2019-01-03T02:02:55.609Z,4.77
2019-01-03T02:05:35.287Z,3.17
2019-01-03T02:08:11.830Z,4.13
2019-01-03T02:10:48.415Z,5.87
2019-01-03T02:13:35.170Z,3.83
2019-01-03T02:16:05.722Z,2.93
2019-01-03T02:18:54.110Z,6.23
2019-01-03T02:21:27.218Z,3.20
2019-01-03T02:24:00.974Z,3.70
2019-01-03T02:26:48.145Z,5.97
2019-01-03T02:29:21.696Z,6.10
2019-01-03T02:31:52.642Z,7.37
2019-01-03T02:34:23.611Z,4.07
2019-01-03T02:36:54.587Z,5.17
2019-01-03T02:39:31.492Z,6.80
2019-01-03T02:42:14.544Z,2.67
2019-01-03T02:44:45.514Z,5.03
2019-01-03T02:47:28.567Z,3.33
2019-01-03T02:49:59.207Z,3.23
2019-01-03T02:52:46.118Z,3.37
2019-01-03T02:55:22.907Z,4.80
2019-01-03T02:58:10.085Z,5.77
2019-01-03T03:00:41.066Z,7.07
2019-01-03T03:03:12.033Z,5.10
2019-01-03T03:05:59.301Z,6.70
2019-01-03T03:08:36.020Z,5.07
2019-01-03T03:11:18.687Z,3.60
2019-01-03T03:14:05.878Z,3.37
2019-01-03T03:16:51.691Z,3.43
2019-01-03T03:19:31.274Z,3.67
2019-01-03T03:22:02.241Z,3.77
2019-01-03T03:24:36.236Z,4.20
2019-01-03T03:27:13.270Z,7.70
2019-01-03T03:30:00.334Z,4.00
2019-01-03T03:32:37.150Z,2.67
2019-01-03T03:35:08.187Z,4.30
2019-01-03T03:37:45.122Z,4.90
2019-01-03T03:40:16.100Z,6.80
2019-01-03T03:42:47.127Z,3.87
2019-01-03T03:45:20.754Z,4.93
2019-01-03T03:47:54.427Z,4.13
2019-01-03T03:50:34.363Z,4.30
2019-01-03T03:53:05.336Z,3.00
2019-01-03T03:55:54.160Z,4.43
2019-01-03T03:58:27.839Z,4.20
2019-01-03T04:01:14.739Z,4.97
2019-01-03T04:04:01.755Z,4.50
2019-01-03T04:06:32.395Z,2.70
2019-01-03T04:09:02.941Z,7.20
2019-01-03T04:11:36.480Z,6.00
2019-01-03T04:14:25.130Z,3.17
2019-01-03T04:16:55.669Z,4.97
2019-01-03T04:19:32.066Z,7.07
2019-01-03T04:22:03.036Z,2.43
2019-01-03T04:24:42.698Z,6.20
2019-01-03T04:27:25.903Z,3.67
2019-01-03T04:29:56.871Z,3.07
2019-01-03T04:32:44.107Z,5.37
2019-01-03T04:35:20.492Z,2.90
2019-01-03T04:38:00.063Z,3.63
2019-01-03T04:40:47.217Z,10.57
2019-01-03T04:43:34.241Z,5.17
2019-01-03T04:46:10.312Z,4.60
2019-01-03T04:48:43.841Z,16.87
2019-01-03T04:51:17.403Z,14.97
2019-01-03T04:54:03.998Z,13.47
2019-01-03T04:56:34.546Z,23.17
2019-01-03T04:59:08.238Z,9.70
2019-01-03T05:02:01.106Z,7.33
2019-01-03T05:04:43.811Z,8.63
2019-01-03T05:07:23.295Z,6.50
2019-01-03T05:09:53.853Z,5.27
2019-01-03T05:12:40.816Z,8.73
2019-01-03T05:15:11.357Z,3.63
2019-01-03T05:17:42.255Z,6.63
2019-01-03T05:20:31.068Z,4.80
2019-01-03T05:23:04.267Z,9.13
2019-01-03T05:25:37.631Z,5.80
2019-01-03T05:28:14.095Z,5.10
2019-01-03T05:31:02.770Z,5.00
2019-01-03T05:33:38.911Z,7.03
2019-01-03T05:36:25.791Z,6.13
2019-01-03T05:39:11.433Z,4.73
2019-01-03T05:41:53.882Z,3.77
2019-01-03T05:44:30.070Z,3.50
2019-01-03T05:47:09.762Z,4.57
2019-01-03T05:49:46.622Z,4.90
2019-01-03T05:52:17.260Z,5.23
2019-01-03T05:54:47.810Z,4.23
2019-01-03T05:57:18.722Z,5.50
2019-01-03T05:59:52.166Z,7.40
2019-01-03T06:02:26.120Z,6.90
2019-01-03T06:04:59.394Z,6.17
2019-01-03T06:07:42.350Z,4.20
2019-01-03T06:10:13.320Z,3.90
2019-01-03T06:12:53.231Z,4.97
2019-01-03T06:15:33.039Z,4.73
2019-01-03T06:18:18.655Z,5.03
2019-01-03T06:21:05.218Z,7.70
2019-01-03T06:23:38.447Z,7.97
2019-01-03T06:26:11.786Z,7.70
2019-01-03T06:28:51.154Z,3.83
2019-01-03T06:31:37.835Z,3.07
2019-01-03T06:34:11.734Z,4.03
2019-01-03T06:36:42.374Z,7.00
2019-01-03T06:39:21.838Z,7.43
2019-01-03T06:41:55.298Z,7.20
2019-01-03T06:44:34.761Z,5.47
2019-01-03T06:47:08.070Z,5.07
2019-01-03T06:49:41.263Z,5.47
2019-01-03T06:52:17.600Z,3.37
2019-01-03T06:54:48.142Z,3.60
2019-01-03T06:57:27.917Z,3.50
2019-01-03T07:03:00.729Z,4.07
2019-01-03T07:05:46.247Z,4.57
2019-01-03T07:08:16.795Z,4.80
2019-01-03T07:10:47.342Z,2.50
2019-01-03T07:13:18.214Z,4.90
2019-01-03T07:15:57.993Z,5.43
2019-01-03T07:18:46.437Z,6.47
2019-01-03T07:21:27.261Z,6.00
2019-01-03T07:23:55.577Z,5.40
2019-01-03T07:26:42.645Z,5.77
2019-01-03T07:29:19.128Z,7.40
2019-01-03T07:31:52.600Z,6.70
2019-01-03T07:34:39.805Z,6.07
2019-01-03T07:37:22.476Z,5.10
2019-01-03T07:39:53.014Z,6.10
2019-01-03T07:42:26.290Z,5.63
2019-01-03T07:45:14.319Z,4.53
2019-01-03T07:47:52.538Z,8.43
2019-01-03T07:50:23.061Z,5.80
2019-01-03T07:53:10.009Z,6.47
2019-01-03T07:55:40.638Z,5.57
2019-01-03T07:58:27.601Z,7.57
2019-01-03T08:01:04.142Z,9.27
2019-01-03T08:03:35.028Z,6.90
2019-01-03T08:06:08.597Z,6.43
2019-01-03T08:08:45.308Z,5.13
2019-01-03T08:11:18.821Z,5.00
2019-01-03T08:13:49.357Z,7.30
2019-01-03T08:16:25.901Z,6.50
2019-01-03T08:18:56.432Z,6.77
2019-01-03T08:21:32.831Z,5.83
2019-01-03T08:24:19.786Z,3.93
2019-01-03T08:27:02.658Z,3.53
2019-01-03T08:29:33.626Z,5.07
2019-01-03T08:32:04.591Z,6.47
2019-01-03T08:34:51.624Z,10.33
2019-01-03T08:37:31.490Z,14.10
2019-01-03T08:40:18.307Z,8.43
2019-01-03T08:43:06.068Z,6.27
2019-01-03T08:45:54.882Z,8.07
2019-01-03T08:48:28.191Z,7.20
2019-01-03T08:51:13.484Z,8.30
2019-01-03T08:53:53.093Z,9.17
2019-01-03T08:56:29.694Z,13.37
2019-01-03T08:59:03.153Z,15.20
2019-01-03T09:01:36.645Z,8.73
2019-01-03T09:04:07.189Z,8.87
2019-01-03T09:06:52.905Z,8.47
2019-01-03T09:09:39.494Z,5.60
2019-01-03T09:12:18.574Z,8.13
2019-01-03T09:14:49.109Z,8.70
2019-01-03T09:17:28.579Z,8.60
2019-01-03T09:19:59.546Z,7.53
2019-01-03T09:22:36.181Z,6.83
2019-01-03T09:25:07.906Z,5.90
2019-01-03T09:27:50.818Z,5.63
2019-01-03T09:30:37.813Z,6.13
2019-01-03T09:33:24.738Z,9.30
2019-01-03T09:36:01.742Z,6.40
2019-01-03T09:38:32.708Z,4.90
2019-01-03T09:41:21.757Z,8.57
2019-01-03T09:43:52.727Z,7.13
2019-01-03T09:46:22.044Z,10.23
2019-01-03T09:48:51.374Z,4.87
2019-01-03T09:51:20.690Z,8.23
2019-01-03T09:53:50.009Z,5.03
2019-01-03T09:56:19.337Z,7.13
2019-01-03T09:58:48.654Z,3.63
2019-01-03T10:01:17.978Z,5.07
2019-01-03T10:03:47.298Z,6.03
2019-01-03T10:06:16.619Z,7.27
2019-01-03T10:08:45.934Z,5.67
2019-01-03T10:11:15.258Z,6.97
2019-01-03T10:13:44.586Z,7.00
2019-01-03T10:16:13.909Z,8.33
2019-01-03T10:18:43.243Z,6.37
2019-01-03T10:21:12.565Z,7.70
2019-01-03T10:23:41.897Z,8.87
2019-01-03T10:26:11.233Z,4.90
2019-01-03T10:28:40.564Z,5.30
2019-01-03T10:31:11.297Z,4.13
2019-01-03T10:33:40.795Z,4.17
2019-01-03T10:36:10.126Z,7.43
2019-01-03T10:38:39.449Z,5.47
2019-01-03T10:41:08.773Z,9.50
2019-01-03T10:43:38.102Z,7.33
2019-01-03T10:46:07.427Z,4.67
2019-01-03T10:48:36.753Z,6.47
2019-01-03T10:51:06.158Z,25.40
2019-01-03T10:53:35.481Z,8.37
2019-01-03T10:56:04.809Z,5.57
2019-01-03T10:58:34.139Z,7.60
2019-01-03T11:01:03.457Z,7.40
2019-01-03T11:03:32.786Z,7.40
2019-01-03T11:06:02.114Z,5.13
2019-01-03T11:08:31.429Z,8.00
2019-01-03T11:11:02.178Z,5.03
2019-01-03T11:13:31.657Z,9.47
2019-01-03T11:16:00.977Z,8.10
2019-01-03T11:18:30.303Z,8.60
2019-01-03T11:20:59.634Z,7.43
2019-01-03T11:23:28.956Z,11.50
2019-01-03T11:25:58.277Z,7.50
2019-01-03T11:28:27.592Z,7.77
2019-01-03T11:30:56.913Z,7.30
2019-01-03T11:33:26.250Z,7.07
2019-01-03T11:35:55.574Z,9.63
2019-01-03T11:38:24.886Z,9.00
2019-01-03T11:40:54.210Z,7.67
2019-01-03T11:43:23.535Z,6.57
2019-01-03T11:45:52.881Z,6.97
2019-01-03T11:48:22.201Z,16.87
2019-01-03T11:50:51.521Z,8.17
2019-01-03T11:53:20.849Z,11.03
2019-01-03T11:55:50.173Z,7.37
2019-01-03T11:58:19.493Z,10.10
2019-01-03T12:00:48.813Z,11.07
2019-01-03T12:03:18.129Z,9.07
2019-01-03T12:05:47.457Z,5.70
2019-01-03T12:08:16.771Z,6.30
2019-01-03T12:10:46.096Z,7.93
2019-01-03T12:13:15.427Z,12.70
2019-01-03T12:15:44.758Z,9.40
2019-01-03T12:18:14.068Z,7.60
2019-01-03T12:20:43.390Z,10.20
2019-01-03T12:23:12.729Z,12.97
2019-01-03T12:25:42.042Z,8.03
2019-01-03T12:28:11.365Z,8.10
2019-01-03T12:30:40.697Z,10.57
2019-01-03T12:33:10.023Z,10.90
2019-01-03T12:35:39.345Z,14.43
2019-01-03T12:38:08.684Z,13.27
2019-01-03T12:40:38.031Z,10.07
2019-01-03T12:43:07.354Z,8.13
2019-01-03T12:45:36.679Z,8.33
2019-01-03T12:48:05.998Z,5.63
2019-01-03T12:50:35.322Z,7.77
2019-01-03T12:53:04.641Z,9.10
2019-01-03T12:55:33.965Z,7.37
2019-01-03T12:58:03.293Z,5.87
2019-01-03T13:00:32.614Z,7.97
2019-01-03T13:03:01.939Z,7.27
2019-01-03T13:05:31.261Z,6.60
2019-01-03T13:08:00.607Z,7.13
2019-01-03T13:10:29.935Z,7.63
2019-01-03T13:12:59.261Z,10.67
2019-01-03T13:15:28.590Z,9.20
2019-01-03T13:17:58.013Z,7.47
2019-01-03T13:20:27.337Z,8.70
2019-01-03T13:22:56.661Z,9.97
2019-01-03T13:25:25.986Z,8.80
2019-01-03T13:27:55.306Z,9.33
2019-01-03T13:30:24.629Z,4.87
2019-01-03T13:32:58.947Z,7.33
2019-01-03T13:35:28.266Z,8.70
2019-01-03T13:37:57.585Z,10.43
2019-01-03T13:40:26.901Z,7.73
2019-01-03T13:42:56.226Z,9.67
2019-01-03T13:45:25.542Z,7.33
2019-01-03T13:47:54.862Z,9.73
2019-01-03T13:50:24.185Z,9.07
2019-01-03T13:52:53.501Z,9.00
2019-01-03T13:55:22.863Z,10.30
2019-01-03T13:57:52.221Z,8.30
2019-01-03T14:00:21.542Z,7.80
2019-01-03T14:02:50.865Z,10.03
2019-01-03T14:05:20.190Z,10.03
2019-01-03T14:07:49.509Z,8.23
2019-01-03T14:10:18.838Z,14.50
2019-01-03T14:12:48.157Z,8.90
2019-01-03T14:15:17.486Z,10.80
2019-01-03T14:17:47.646Z,8.10
2019-01-03T14:20:16.970Z,10.40
2019-01-03T14:22:46.294Z,7.00
2019-01-03T14:25:15.618Z,12.53
2019-01-03T14:27:44.946Z,6.70
2019-01-03T14:30:14.269Z,9.77
2019-01-03T14:32:43.594Z,11.37
2019-01-03T14:35:12.922Z,9.43
2019-01-03T14:37:42.241Z,9.87
2019-01-03T14:40:11.568Z,11.20
2019-01-03T14:42:40.890Z,7.43
2019-01-03T14:45:10.218Z,11.43
2019-01-03T14:47:39.542Z,12.37
2019-01-03T14:50:10.213Z,10.17
2019-01-03T14:53:03.848Z,9.23
2019-01-03T14:55:33.170Z,10.90
2019-01-03T14:58:02.610Z,7.03
2019-01-03T15:00:31.930Z,4.60
2019-01-03T15:03:01.249Z,9.20
2019-01-03T15:05:30.578Z,10.23
2019-01-03T15:07:59.893Z,6.90
2019-01-03T15:10:29.213Z,6.43
2019-01-03T15:12:58.542Z,8.00
2019-01-03T15:15:27.869Z,7.37
2019-01-03T15:17:57.186Z,8.73
2019-01-03T15:20:26.514Z,7.17
2019-01-03T15:22:55.829Z,8.53
2019-01-03T15:25:25.158Z,10.93
2019-01-03T15:27:54.493Z,11.03
2019-01-03T15:30:23.821Z,8.33
2019-01-03T15:32:53.137Z,6.63
2019-01-03T15:35:22.457Z,10.80
2019-01-03T15:37:51.789Z,12.00
2019-01-03T15:40:21.109Z,7.53
2019-01-03T15:42:50.435Z,10.47
2019-01-03T15:45:19.758Z,7.33
2019-01-03T15:47:49.084Z,9.37
2019-01-03T15:50:18.406Z,9.17
2019-01-03T15:52:47.732Z,13.60
2019-01-03T15:55:17.058Z,9.77
2019-01-03T15:57:46.373Z,8.70
2019-01-03T16:00:15.694Z,7.83
2019-01-03T16:02:45.017Z,9.63
2019-01-03T16:05:14.343Z,9.37
2019-01-03T16:07:43.667Z,8.43
2019-01-03T16:10:13.005Z,11.77
2019-01-03T16:12:42.321Z,8.00
2019-01-03T16:15:11.654Z,10.40
2019-01-03T16:17:40.978Z,9.03
2019-01-03T16:20:10.301Z,10.10
2019-01-03T16:22:39.621Z,7.93
2019-01-03T16:25:08.945Z,11.93
2019-01-03T16:27:38.274Z,9.17
2019-01-03T16:30:09.489Z,9.73
2019-01-03T16:32:43.821Z,10.57
2019-01-03T16:35:13.154Z,13.10
2019-01-03T16:37:42.478Z,11.30
2019-01-03T16:40:11.807Z,11.17
2019-01-03T16:42:42.279Z,11.20
2019-01-03T16:45:12.246Z,11.77
2019-01-03T16:47:41.570Z,11.90
2019-01-03T16:50:13.442Z,10.67
2019-01-03T16:52:42.770Z,10.27
2019-01-03T16:55:12.090Z,9.90
2019-01-03T16:57:41.427Z,12.97
2019-01-03T17:00:10.985Z,15.37
2019-01-03T17:02:39.971Z,11.80
2019-01-03T17:05:09.352Z,14.33
2019-01-03T17:07:38.345Z,13.07
2019-01-03T17:10:08.927Z,12.63
2019-01-03T17:12:38.162Z,32.00
2019-01-03T17:15:07.722Z,8.93
2019-01-03T17:17:37.056Z,11.80
2019-01-03T17:20:09.034Z,12.93
2019-01-03T17:22:38.362Z,13.07
2019-01-03T17:25:09.931Z,10.97
2019-01-03T17:27:39.258Z,9.67
2019-01-03T17:30:10.221Z,10.50
2019-01-03T17:32:39.617Z,13.47
2019-01-03T17:35:09.392Z,13.60
2019-01-03T17:37:38.621Z,10.13
2019-01-03T17:40:09.093Z,10.40
2019-01-03T17:42:38.398Z,9.67
2019-01-03T17:45:10.066Z,13.00
2019-01-03T17:47:39.053Z,12.33
2019-01-03T17:50:10.730Z,10.57
2019-01-03T17:52:40.057Z,12.20
2019-01-03T17:55:09.386Z,12.13
2019-01-03T17:57:38.386Z,11.43
2019-01-03T18:00:13.176Z,11.57
2019-01-03T18:02:42.497Z,9.93
2019-01-03T18:05:11.821Z,14.23
2019-01-03T18:07:40.826Z,9.23
2019-01-03T18:10:11.101Z,10.90
2019-01-03T18:12:40.019Z,10.60
2019-01-03T18:15:09.086Z,9.37
2019-01-03T18:17:38.402Z,12.33
2019-01-03T18:20:09.169Z,13.00
2019-01-03T18:22:38.405Z,11.90
2019-01-03T18:25:07.735Z,13.13
2019-01-03T18:27:37.059Z,14.03
2019-01-03T18:30:09.399Z,10.07
2019-01-03T18:32:38.398Z,12.33
2019-01-03T18:35:07.701Z,9.83
2019-01-03T18:37:37.022Z,8.97
2019-01-03T18:40:09.753Z,10.60
2019-01-03T18:42:39.081Z,11.03
2019-01-03T18:45:11.436Z,9.37
2019-01-03T18:47:40.761Z,10.03
2019-01-03T18:50:10.093Z,12.30
2019-01-03T18:52:39.417Z,13.83
2019-01-03T18:55:09.171Z,14.77
2019-01-03T18:57:38.533Z,15.17
2019-01-03T19:00:10.971Z,11.50
2019-01-03T19:02:40.302Z,11.60
2019-01-03T19:05:09.617Z,13.83
2019-01-03T19:07:38.613Z,13.40
2019-01-03T19:10:08.598Z,12.57
2019-01-03T19:12:37.834Z,10.73
2019-01-03T19:15:08.902Z,12.87
2019-01-03T19:17:38.226Z,11.70
2019-01-03T19:20:09.594Z,12.77
2019-01-03T19:22:38.581Z,10.37
2019-01-03T19:25:13.448Z,12.23
2019-01-03T19:27:42.765Z,12.67
2019-01-03T19:30:12.498Z,11.33
2019-01-03T19:32:41.857Z,9.27
2019-01-03T19:35:12.014Z,12.97
2019-01-03T19:37:41.337Z,13.87
2019-01-03T19:40:12.914Z,13.13
2019-01-03T19:42:43.373Z,13.70
2019-01-03T19:45:13.147Z,14.17
2019-01-03T19:47:42.471Z,11.00
2019-01-03T19:50:14.743Z,10.60
2019-01-03T19:52:44.638Z,12.07
2019-01-03T19:55:14.038Z,10.60
2019-01-03T19:57:43.367Z,10.93
2019-01-03T20:00:14.801Z,10.40
2019-01-03T20:02:44.194Z,11.03
2019-01-03T20:05:13.516Z,14.23
2019-01-03T20:07:42.846Z,13.57
2019-01-03T20:10:12.848Z,8.60
2019-01-03T20:12:43.374Z,14.07
2019-01-03T20:15:14.322Z,9.37
2019-01-03T20:17:43.711Z,12.17
2019-01-03T20:20:13.040Z,12.10
2019-01-03T20:22:42.368Z,11.17
2019-01-03T20:25:11.964Z,13.50
2019-01-03T20:27:41.295Z,8.03
2019-01-03T20:30:11.121Z,11.30
2019-01-03T20:32:40.554Z,8.87
2019-01-03T20:35:09.873Z,13.03
2019-01-03T20:37:39.198Z,10.43
2019-01-03T20:40:09.490Z,8.23
2019-01-03T20:42:38.809Z,11.53
2019-01-03T20:45:12.855Z,13.97
2019-01-03T20:47:42.240Z,11.90
2019-01-03T20:50:12.697Z,8.37
2019-01-03T20:52:42.025Z,8.30
2019-01-03T20:55:11.346Z,10.97
2019-01-03T20:57:40.639Z,10.70
2019-01-03T21:00:11.051Z,13.57
2019-01-03T21:02:45.213Z,10.20
2019-01-03T21:05:14.536Z,13.23
2019-01-03T21:07:43.863Z,11.03
2019-01-03T21:10:13.393Z,11.23
2019-01-03T21:12:42.723Z,13.17
2019-01-03T21:15:14.682Z,9.73
2019-01-03T21:17:44.010Z,12.83
2019-01-03T21:20:15.374Z,12.87
2019-01-03T21:22:44.707Z,11.00
2019-01-03T21:25:14.029Z,10.87
2019-01-03T21:27:43.352Z,8.57
2019-01-03T21:30:15.582Z,8.83
2019-01-03T21:32:44.910Z,8.30
2019-01-03T21:35:14.264Z,9.53
2019-01-03T21:37:43.642Z,9.00
2019-01-03T21:40:13.109Z,7.60
2019-01-03T21:42:42.517Z,11.17
2019-01-03T21:45:11.512Z,14.70
2019-01-03T21:47:40.754Z,10.13
2019-01-03T21:50:10.422Z,9.77
2019-01-03T21:52:39.654Z,10.27
2019-01-03T21:55:08.982Z,9.57
2019-01-03T21:57:38.310Z,10.10
2019-01-03T22:00:10.187Z,11.53
2019-01-03T22:02:39.182Z,10.13
2019-01-03T22:05:08.480Z,12.30
2019-01-03T22:07:37.490Z,11.20
2019-01-03T22:10:08.967Z,10.40
2019-01-03T22:12:38.296Z,9.67
2019-01-03T22:15:08.867Z,11.33
2019-01-03T22:17:37.859Z,9.53
2019-01-03T22:20:07.642Z,10.67
2019-01-03T22:22:36.549Z,10.27
2019-01-03T22:25:07.363Z,8.93
2019-01-03T22:27:36.410Z,10.40
2019-01-03T22:30:08.551Z,9.43
2019-01-03T22:32:37.871Z,10.20
2019-01-03T22:35:07.243Z,11.27
2019-01-03T22:37:36.172Z,13.23
2019-01-03T22:40:07.506Z,8.45
2019-01-03T22:42:36.503Z,8.30
2019-01-03T22:45:06.778Z,8.58
2019-01-03T22:47:36.049Z,8.40
2019-01-03T22:50:07.721Z,9.77
2019-01-03T22:52:36.637Z,9.83
2019-01-03T22:55:06.782Z,8.78
2019-01-03T22:57:35.778Z,10.40
2019-01-03T23:00:10.218Z,10.47
2019-01-03T23:02:39.127Z,12.43
2019-01-03T23:05:08.353Z,9.00
2019-01-03T23:07:37.677Z,7.00
2019-01-03T23:10:06.720Z,9.03
2019-01-03T23:12:35.644Z,7.47
2019-01-03T23:15:05.650Z,8.83
2019-01-03T23:17:34.650Z,12.37
2019-01-03T23:20:04.222Z,7.47
2019-01-03T23:22:33.121Z,11.57
2019-01-03T23:25:02.033Z,13.60
2019-01-03T23:27:30.931Z,9.23
2019-01-03T23:30:00.180Z,5.80
2019-01-03T23:32:29.229Z,7.43
2019-01-03T23:34:58.124Z,8.57
2019-01-03T23:37:27.358Z,7.93
2019-01-03T23:39:56.347Z,8.73
2019-01-03T23:42:25.582Z,9.13
2019-01-03T23:45:10.773Z,7.97
2019-01-03T23:47:39.675Z,7.90
2019-01-03T23:50:12.780Z,9.50
2019-01-03T23:52:42.010Z,7.53
2019-01-03T23:55:11.332Z,6.27
2019-01-03T23:57:40.398Z,11.47
